createdAt,value
2019-03-15T00:01:36.901Z,12.33
2019-03-15T00:04:04.260Z,12.15
2019-03-15T00:06:31.532Z,12.25
2019-03-15T00:08:58.806Z,11.43
2019-03-15T00:11:26.078Z,13.72
2019-03-15T00:13:53.380Z,10.60
2019-03-15T00:16:20.648Z,12.75
2019-03-15T00:18:47.927Z,11.83
2019-03-15T00:21:15.217Z,7.65
2019-03-15T00:23:42.496Z,12.43
2019-03-15T00:26:09.768Z,11.22
2019-03-15T00:28:37.080Z,12.03
2019-03-15T00:31:04.460Z,7.62
2019-03-15T00:33:31.730Z,10.05
2019-03-15T00:35:59.217Z,6.78
2019-03-15T00:38:26.542Z,13.43
2019-03-15T00:40:54.089Z,16.65
2019-03-15T00:43:21.359Z,8.88
2019-03-15T00:45:48.637Z,12.10
2019-03-15T00:48:15.911Z,8.85
2019-03-15T00:50:43.269Z,11.28
2019-03-15T00:53:10.587Z,17.27
2019-03-15T00:55:37.928Z,6.78
2019-03-15T00:58:05.267Z,8.20
2019-03-15T01:00:32.525Z,11.33
2019-03-15T01:02:59.817Z,5.22
2019-03-15T01:05:27.122Z,9.10
2019-03-15T01:07:54.399Z,11.45
2019-03-15T01:10:21.780Z,9.45
2019-03-15T01:12:49.163Z,8.18
2019-03-15T01:15:16.501Z,7.65
2019-03-15T01:17:43.783Z,10.32
2019-03-15T01:20:11.050Z,8.28
2019-03-15T01:22:38.342Z,9.75
2019-03-15T01:25:07.166Z,7.80
2019-03-15T01:27:34.507Z,12.88
2019-03-15T01:30:01.875Z,11.57
2019-03-15T01:32:29.173Z,14.73
2019-03-15T01:34:56.466Z,10.32
2019-03-15T01:37:23.771Z,8.00
2019-03-15T01:39:51.390Z,12.47
2019-03-15T01:42:18.676Z,10.68
2019-03-15T01:44:45.965Z,14.40
2019-03-15T01:47:13.238Z,12.23
2019-03-15T01:49:40.502Z,17.17
2019-03-15T01:52:07.794Z,16.57
2019-03-15T01:54:35.239Z,11.40
2019-03-15T01:57:02.589Z,11.80
2019-03-15T01:59:29.874Z,18.15
2019-03-15T02:01:57.136Z,7.58
2019-03-15T02:04:24.613Z,10.60
2019-03-15T02:06:51.870Z,8.33
2019-03-15T02:09:19.137Z,12.43
2019-03-15T02:11:46.430Z,9.90
2019-03-15T02:14:13.714Z,8.48
2019-03-15T02:16:41.066Z,10.68
2019-03-15T02:19:08.334Z,13.55
2019-03-15T02:21:35.627Z,9.93
2019-03-15T02:24:02.900Z,7.22
2019-03-15T02:26:30.250Z,9.15
2019-03-15T02:28:57.518Z,10.10
2019-03-15T02:31:24.850Z,8.28
2019-03-15T02:33:52.451Z,9.30
2019-03-15T02:36:19.806Z,19.57
2019-03-15T02:38:47.067Z,9.68
2019-03-15T02:41:14.348Z,9.43
2019-03-15T02:43:41.632Z,12.05
2019-03-15T02:46:08.942Z,7.80
2019-03-15T02:48:36.251Z,10.93
2019-03-15T02:51:03.559Z,12.03
2019-03-15T02:53:30.826Z,11.10
2019-03-15T02:55:58.121Z,10.65
2019-03-15T02:58:25.481Z,11.73
2019-03-15T03:00:52.933Z,17.57
2019-03-15T03:03:20.709Z,16.00
2019-03-15T03:05:48.362Z,12.75
2019-03-15T03:08:15.628Z,8.75
2019-03-15T03:10:42.907Z,21.57
2019-03-15T03:13:10.714Z,12.85
2019-03-15T03:15:38.454Z,12.70
2019-03-15T03:18:07.235Z,10.78
2019-03-15T03:20:34.877Z,17.32
2019-03-15T03:23:02.321Z,16.85
2019-03-15T03:25:30.099Z,15.03
2019-03-15T03:27:57.851Z,13.45
2019-03-15T03:30:25.135Z,10.90
2019-03-15T03:32:52.422Z,13.13
2019-03-15T03:35:19.707Z,17.75
2019-03-15T03:37:46.980Z,11.75
2019-03-15T03:40:14.254Z,13.50
2019-03-15T03:42:41.615Z,14.30
2019-03-15T03:45:09.283Z,11.30
2019-03-15T03:47:36.627Z,9.08
2019-03-15T03:50:05.070Z,12.73
2019-03-15T03:52:32.351Z,13.93
2019-03-15T03:55:00.154Z,12.65
2019-03-15T03:57:27.470Z,16.73
2019-03-15T03:59:54.742Z,17.55
2019-03-15T04:02:22.166Z,10.20
2019-03-15T04:04:49.432Z,18.12
2019-03-15T04:07:16.999Z,11.15
2019-03-15T04:09:46.340Z,11.55
2019-03-15T04:12:13.644Z,13.00
2019-03-15T04:14:41.015Z,8.60
2019-03-15T04:17:08.343Z,16.73
2019-03-15T04:19:35.636Z,16.87
2019-03-15T04:22:03.052Z,19.35
2019-03-15T04:24:30.318Z,23.60
2019-03-15T04:26:57.694Z,18.77
2019-03-15T04:29:25.056Z,14.00
2019-03-15T04:31:52.394Z,19.10
2019-03-15T04:34:19.683Z,16.50
2019-03-15T04:36:46.947Z,16.42
2019-03-15T04:39:14.261Z,17.82
2019-03-15T04:41:41.586Z,13.90
2019-03-15T04:44:08.855Z,19.30
2019-03-15T04:46:36.318Z,20.75
2019-03-15T04:49:03.593Z,17.95
2019-03-15T04:51:30.886Z,11.60
2019-03-15T04:53:58.150Z,14.87
2019-03-15T04:56:25.447Z,10.85
2019-03-15T04:58:52.737Z,11.20
2019-03-15T05:01:20.034Z,8.80
2019-03-15T05:03:47.288Z,16.02
2019-03-15T05:06:14.569Z,9.23
2019-03-15T05:08:41.850Z,10.18
2019-03-15T05:11:09.127Z,8.55
2019-03-15T05:13:36.424Z,6.87
2019-03-15T05:16:03.801Z,9.20
2019-03-15T05:18:31.090Z,8.18
2019-03-15T05:20:58.343Z,6.20
2019-03-15T05:23:25.642Z,9.18
2019-03-15T05:25:53.080Z,11.60
2019-03-15T05:28:20.351Z,8.90
2019-03-15T05:30:47.628Z,10.88
2019-03-15T05:33:14.891Z,10.48
2019-03-15T05:35:42.208Z,9.55
2019-03-15T05:38:09.638Z,11.45
2019-03-15T05:40:36.914Z,12.15
2019-03-15T05:43:04.203Z,11.33
2019-03-15T05:45:31.525Z,9.93
2019-03-15T05:47:58.814Z,13.13
2019-03-15T05:50:26.074Z,8.55
2019-03-15T05:52:53.360Z,6.28
2019-03-15T05:55:20.656Z,9.93
2019-03-15T05:57:47.970Z,9.75
2019-03-15T06:00:15.391Z,9.58
2019-03-15T06:02:42.712Z,6.85
2019-03-15T06:05:10.357Z,5.65
2019-03-15T06:07:37.634Z,5.35
2019-03-15T06:10:10.049Z,8.98
2019-03-15T06:12:37.405Z,6.65
2019-03-15T06:15:05.738Z,9.30
2019-03-15T06:17:33.034Z,10.23
2019-03-15T06:20:00.285Z,9.33
2019-03-15T06:22:27.580Z,6.37
2019-03-15T06:24:54.849Z,6.40
2019-03-15T06:27:22.245Z,8.30
2019-03-15T06:29:49.655Z,5.92
2019-03-15T06:32:17.018Z,7.00
2019-03-15T06:34:44.360Z,7.20
2019-03-15T06:37:11.609Z,7.42
2019-03-15T06:39:38.903Z,6.78
2019-03-15T06:42:06.239Z,5.42
2019-03-15T06:44:33.614Z,8.18
2019-03-15T06:47:00.870Z,4.53
2019-03-15T06:49:28.201Z,6.83
2019-03-15T06:51:55.451Z,8.10
2019-03-15T06:54:22.718Z,9.65
2019-03-15T06:56:50.006Z,7.78
2019-03-15T06:59:17.265Z,7.20
2019-03-15T07:01:44.555Z,8.98
2019-03-15T07:04:11.829Z,10.10
2019-03-15T07:06:39.151Z,7.67
2019-03-15T07:09:07.330Z,9.50
2019-03-15T07:11:35.074Z,7.50
2019-03-15T07:14:02.394Z,8.13
2019-03-15T07:16:29.683Z,7.62
2019-03-15T07:18:56.970Z,10.53
2019-03-15T07:21:24.253Z,10.32
2019-03-15T07:23:51.526Z,7.87
2019-03-15T07:26:18.794Z,8.28
2019-03-15T07:28:46.081Z,8.83
2019-03-15T07:31:13.345Z,8.40
2019-03-15T07:33:40.635Z,10.10
2019-03-15T07:36:07.934Z,8.25
2019-03-15T07:38:35.325Z,7.12
2019-03-15T07:41:02.711Z,7.62
2019-03-15T07:43:29.997Z,10.93
2019-03-15T07:45:57.282Z,7.75
2019-03-15T07:48:26.869Z,8.50
2019-03-15T07:50:53.748Z,7.40
2019-03-15T07:53:21.009Z,8.58
2019-03-15T07:55:48.316Z,9.23
2019-03-15T07:58:15.617Z,9.05
2019-03-15T08:00:42.886Z,7.97
2019-03-15T08:03:10.225Z,9.10
2019-03-15T08:05:38.223Z,11.30
2019-03-15T08:08:05.722Z,7.90
2019-03-15T08:10:32.973Z,9.60
2019-03-15T08:13:00.342Z,9.33
2019-03-15T08:15:27.730Z,8.60
2019-03-15T08:17:55.053Z,7.53
2019-03-15T08:20:22.337Z,10.40
2019-03-15T08:22:49.615Z,15.10
2019-03-15T08:25:16.944Z,13.28
2019-03-15T08:27:44.213Z,13.60
2019-03-15T08:30:12.780Z,10.38
2019-03-15T08:32:43.503Z,14.05
2019-03-15T08:35:09.410Z,21.10
2019-03-15T08:37:36.697Z,16.60
2019-03-15T08:40:05.530Z,14.87
2019-03-15T08:42:34.686Z,16.50
2019-03-15T08:45:02.186Z,19.40
2019-03-15T08:47:29.573Z,15.30
2019-03-15T08:49:56.842Z,21.42
2019-03-15T08:52:24.122Z,23.65
2019-03-15T08:55:04.238Z,20.57
2019-03-15T08:57:20.399Z,19.32
2019-03-15T08:59:54.163Z,22.20
2019-03-15T09:02:16.667Z,18.75
2019-03-15T09:04:43.963Z,18.30
2019-03-15T09:07:11.220Z,17.30
2019-03-15T09:09:38.507Z,21.82
2019-03-15T09:12:05.777Z,22.40
2019-03-15T09:14:33.140Z,20.97
2019-03-15T09:17:00.417Z,20.40
2019-03-15T09:19:27.698Z,26.57
2019-03-15T09:21:54.987Z,27.55
2019-03-15T09:24:22.255Z,23.12
2019-03-15T09:26:49.571Z,17.40
2019-03-15T09:29:16.844Z,24.23
2019-03-15T09:31:48.166Z,22.48
2019-03-15T09:34:13.122Z,25.62
2019-03-15T09:36:50.180Z,20.27
2019-03-15T09:39:09.422Z,23.20
2019-03-15T09:41:39.975Z,19.32
2019-03-15T09:44:05.722Z,20.45
2019-03-15T09:46:33.076Z,21.70
2019-03-15T09:49:00.421Z,23.07
2019-03-15T09:51:27.704Z,23.22
2019-03-15T09:53:54.971Z,20.60
2019-03-15T09:56:22.257Z,26.35
2019-03-15T09:58:49.530Z,20.48
2019-03-15T10:01:33.751Z,19.55
2019-03-15T10:03:45.810Z,22.00
2019-03-15T10:06:16.602Z,21.48
2019-03-15T10:08:42.078Z,22.02
2019-03-15T10:11:09.366Z,23.83
2019-03-15T10:13:36.730Z,19.17
2019-03-15T10:16:04.213Z,13.22
2019-03-15T10:18:31.543Z,25.37
2019-03-15T10:20:58.837Z,23.00
2019-03-15T10:23:26.174Z,19.87
2019-03-15T10:25:53.470Z,24.40
2019-03-15T10:28:20.743Z,24.40
2019-03-15T10:30:48.016Z,21.68
2019-03-15T10:33:15.320Z,24.77
2019-03-15T10:35:42.579Z,20.08
2019-03-15T10:38:09.861Z,22.00
2019-03-15T10:40:37.166Z,18.55
2019-03-15T10:43:04.491Z,18.87
2019-03-15T10:45:31.813Z,21.48
2019-03-15T10:47:59.094Z,20.90
2019-03-15T10:50:26.351Z,20.90
2019-03-15T10:52:54.064Z,20.30
2019-03-15T10:55:21.921Z,22.58
2019-03-15T10:57:49.234Z,19.45
2019-03-15T11:00:17.905Z,21.35
2019-03-15T11:02:45.189Z,21.68
2019-03-15T11:05:12.733Z,18.90
2019-03-15T11:07:40.024Z,24.90
2019-03-15T11:10:08.554Z,18.87
2019-03-15T11:12:35.836Z,18.73
2019-03-15T11:15:03.290Z,22.25
2019-03-15T11:17:30.675Z,19.25
2019-03-15T11:19:58.128Z,23.00
2019-03-15T11:22:25.404Z,15.60
2019-03-15T11:24:52.667Z,19.00
2019-03-15T11:27:19.947Z,21.73
2019-03-15T11:29:47.214Z,20.32
2019-03-15T11:32:14.568Z,19.62
2019-03-15T11:34:41.844Z,24.52
2019-03-15T11:37:09.128Z,18.17
2019-03-15T11:39:36.386Z,14.50
2019-03-15T11:42:03.691Z,16.85
2019-03-15T11:44:30.970Z,15.03
2019-03-15T11:46:58.332Z,18.52
2019-03-15T11:49:28.088Z,19.40
2019-03-15T11:51:54.602Z,16.87
2019-03-15T11:54:21.898Z,19.50
2019-03-15T11:56:50.799Z,17.50
2019-03-15T11:59:18.399Z,17.45
2019-03-15T12:01:45.670Z,15.38
2019-03-15T12:04:12.955Z,15.00
2019-03-15T12:06:40.223Z,22.93
2019-03-15T12:09:07.564Z,20.08
2019-03-15T12:11:34.836Z,21.87
2019-03-15T12:14:02.120Z,13.90
2019-03-15T12:16:29.453Z,17.48
2019-03-15T12:18:56.826Z,20.00
2019-03-15T12:21:24.097Z,17.95
2019-03-15T12:23:51.374Z,15.18
2019-03-15T12:26:18.686Z,11.83
2019-03-15T12:28:46.010Z,12.58
2019-03-15T12:31:13.293Z,15.35
2019-03-15T12:33:40.556Z,20.30
2019-03-15T12:36:07.854Z,11.65
2019-03-15T12:38:35.119Z,23.30
2019-03-15T12:41:02.393Z,19.00
2019-03-15T12:43:29.680Z,21.20
2019-03-15T12:45:56.992Z,17.10
2019-03-15T12:48:24.250Z,13.78
2019-03-15T12:50:51.513Z,14.87
2019-03-15T12:53:18.794Z,13.90
2019-03-15T12:55:46.066Z,14.60
2019-03-15T12:58:13.356Z,15.10
2019-03-15T13:00:40.712Z,12.10
2019-03-15T13:03:07.992Z,14.78
2019-03-15T13:05:35.278Z,13.80
2019-03-15T13:08:02.572Z,12.95
2019-03-15T13:10:29.898Z,20.12
2019-03-15T13:12:57.267Z,12.35
2019-03-15T13:15:24.542Z,15.45
2019-03-15T13:17:51.858Z,12.90
2019-03-15T13:20:19.190Z,17.50
2019-03-15T13:22:46.469Z,16.40
2019-03-15T13:25:13.773Z,15.30
2019-03-15T13:27:41.030Z,13.98
2019-03-15T13:30:14.365Z,14.73
2019-03-15T13:32:41.638Z,13.85
2019-03-15T13:35:09.087Z,15.50
2019-03-15T13:37:36.352Z,19.55
2019-03-15T13:40:05.503Z,11.78
2019-03-15T13:42:32.799Z,15.30
2019-03-15T13:45:00.105Z,17.40
2019-03-15T13:47:27.430Z,16.32
2019-03-15T13:49:54.719Z,17.80
2019-03-15T13:52:24.897Z,19.35
2019-03-15T13:54:52.190Z,14.15
2019-03-15T13:57:21.454Z,12.13
2019-03-15T13:59:48.465Z,15.28
2019-03-15T14:02:15.811Z,17.80
2019-03-15T14:04:43.086Z,18.48
2019-03-15T14:07:10.392Z,19.42
2019-03-15T14:09:37.658Z,24.75
2019-03-15T14:12:04.950Z,25.77
2019-03-15T14:14:32.309Z,26.90
2019-03-15T14:16:59.660Z,18.87
2019-03-15T14:19:26.901Z,20.80
2019-03-15T14:21:54.276Z,20.37
2019-03-15T14:24:22.864Z,17.35
2019-03-15T14:26:51.121Z,18.73
2019-03-15T14:29:18.538Z,18.45
2019-03-15T14:31:45.823Z,12.65
2019-03-15T14:34:13.175Z,15.13
2019-03-15T14:36:40.549Z,19.70
2019-03-15T14:39:08.079Z,23.47
2019-03-15T14:41:35.704Z,23.83
2019-03-15T14:44:03.078Z,26.68
2019-03-15T14:46:30.426Z,25.60
2019-03-15T14:48:57.689Z,26.62
2019-03-15T14:51:24.970Z,24.23
2019-03-15T14:53:52.247Z,24.75
2019-03-15T14:56:19.530Z,22.77
2019-03-15T14:58:46.894Z,24.00
2019-03-15T15:01:14.188Z,27.70
2019-03-15T15:03:41.466Z,26.87
2019-03-15T15:06:08.763Z,29.00
2019-03-15T15:08:36.039Z,18.48
2019-03-15T15:11:03.453Z,22.73
2019-03-15T15:13:30.753Z,27.70
2019-03-15T15:15:58.043Z,26.68
2019-03-15T15:18:25.321Z,21.57
2019-03-15T15:20:52.638Z,27.65
2019-03-15T15:23:19.973Z,31.15
2019-03-15T15:25:47.239Z,30.60
2019-03-15T15:28:14.493Z,31.57
2019-03-15T15:30:41.776Z,31.27
2019-03-15T15:33:09.065Z,36.90
2019-03-15T15:35:36.349Z,24.40
2019-03-15T15:38:03.709Z,26.75
2019-03-15T15:40:30.986Z,32.17
2019-03-15T15:42:58.276Z,25.92
2019-03-15T15:45:25.541Z,20.85
2019-03-15T15:47:52.809Z,18.32
2019-03-15T15:50:20.078Z,20.40
2019-03-15T15:52:47.432Z,23.10
2019-03-15T15:55:15.072Z,24.55
2019-03-15T15:57:42.352Z,25.57
2019-03-15T16:00:11.056Z,25.17
2019-03-15T16:02:38.318Z,20.30
2019-03-15T16:05:08.555Z,24.02
2019-03-15T16:07:34.860Z,23.35
2019-03-15T16:10:02.157Z,20.27
2019-03-15T16:12:29.504Z,15.25
2019-03-15T16:14:56.759Z,18.67
2019-03-15T16:17:24.034Z,23.12
2019-03-15T16:19:51.313Z,20.60
2019-03-15T16:22:18.588Z,23.47
2019-03-15T16:24:45.868Z,15.25
2019-03-15T16:27:13.165Z,20.20
2019-03-15T16:29:40.445Z,16.45
2019-03-15T16:32:07.739Z,18.52
2019-03-15T16:34:35.037Z,17.55
2019-03-15T16:37:02.367Z,18.98
2019-03-15T16:39:29.643Z,14.25
2019-03-15T16:41:57.080Z,19.62
2019-03-15T16:44:24.353Z,16.97
2019-03-15T16:46:51.646Z,15.95
2019-03-15T16:49:18.943Z,18.65
2019-03-15T16:51:46.347Z,14.47
2019-03-15T16:54:13.622Z,20.55
2019-03-15T16:56:40.909Z,19.85
2019-03-15T16:59:08.226Z,18.32
2019-03-15T17:01:35.525Z,16.12
2019-03-15T17:04:02.783Z,16.70
2019-03-15T17:06:30.076Z,15.25
2019-03-15T17:08:57.344Z,15.38
2019-03-15T17:11:24.643Z,15.20
2019-03-15T17:13:51.910Z,17.67
2019-03-15T17:16:19.337Z,16.17
2019-03-15T17:18:46.753Z,20.85
2019-03-15T17:21:14.095Z,23.77
2019-03-15T17:23:41.463Z,29.95
2019-03-15T17:26:08.752Z,26.93
2019-03-15T17:28:36.171Z,20.72
2019-03-15T17:31:09.654Z,14.05
2019-03-15T17:33:32.505Z,16.55
2019-03-15T17:35:59.773Z,16.40
2019-03-15T17:38:27.073Z,19.55
2019-03-15T17:40:54.335Z,18.32
2019-03-15T17:43:21.649Z,17.15
2019-03-15T17:45:48.929Z,14.63
2019-03-15T17:48:16.219Z,13.50
2019-03-15T17:50:43.490Z,12.15
2019-03-15T17:53:10.777Z,18.12
2019-03-15T17:55:38.079Z,17.42
2019-03-15T17:58:05.362Z,12.88
2019-03-15T18:00:35.805Z,12.13
2019-03-15T18:03:03.156Z,11.57
2019-03-15T18:05:30.512Z,12.78
2019-03-15T18:07:57.856Z,8.00
2019-03-15T18:10:25.461Z,15.03
2019-03-15T18:12:52.738Z,14.00
2019-03-15T18:15:20.001Z,9.70
2019-03-15T18:17:47.280Z,19.07
2019-03-15T18:20:14.635Z,16.57
2019-03-15T18:22:41.891Z,9.43
2019-03-15T18:25:09.662Z,12.93
2019-03-15T18:27:37.015Z,14.75
2019-03-15T18:30:05.832Z,14.73
2019-03-15T18:32:33.118Z,16.67
2019-03-15T18:35:00.397Z,13.68
2019-03-15T18:37:27.754Z,9.13
2019-03-15T18:39:55.225Z,13.50
2019-03-15T18:42:22.617Z,14.68
2019-03-15T18:44:49.922Z,12.60
2019-03-15T18:47:17.245Z,11.95
2019-03-15T18:49:44.734Z,10.45
2019-03-15T18:52:11.995Z,9.95
2019-03-15T18:54:39.251Z,9.53
2019-03-15T18:57:07.250Z,12.25
2019-03-15T18:59:39.962Z,11.22
2019-03-15T19:02:03.569Z,15.20
2019-03-15T19:04:30.908Z,10.28
2019-03-15T19:06:58.199Z,14.68
2019-03-15T19:09:25.495Z,18.05
2019-03-15T19:11:53.210Z,9.85
2019-03-15T19:14:20.508Z,12.70
2019-03-15T19:16:47.786Z,14.05
2019-03-15T19:19:15.098Z,11.50
2019-03-15T19:21:42.432Z,16.80
2019-03-15T19:24:09.694Z,10.43
2019-03-15T19:26:36.967Z,11.45
2019-03-15T19:29:04.374Z,16.12
2019-03-15T19:31:31.775Z,12.98
2019-03-15T19:33:59.038Z,16.48
2019-03-15T19:36:26.429Z,18.07
2019-03-15T19:38:53.779Z,15.70
2019-03-15T19:41:21.043Z,12.00
2019-03-15T19:43:48.332Z,10.28
2019-03-15T19:46:15.899Z,10.72
2019-03-15T19:48:43.256Z,13.50
2019-03-15T19:51:10.573Z,10.93
2019-03-15T19:53:37.854Z,18.62
2019-03-15T19:56:06.984Z,14.18
2019-03-15T19:58:34.283Z,16.17
2019-03-15T20:01:01.600Z,19.50
2019-03-15T20:03:28.864Z,16.25
2019-03-15T20:05:56.146Z,16.23
2019-03-15T20:08:23.418Z,9.88
2019-03-15T20:10:50.720Z,8.33
2019-03-15T20:13:18.015Z,11.88
2019-03-15T20:15:45.288Z,12.43
2019-03-15T20:18:12.583Z,14.93
2019-03-15T20:20:39.858Z,16.62
2019-03-15T20:23:07.129Z,15.75
2019-03-15T20:25:34.398Z,19.92
2019-03-15T20:28:04.131Z,13.30
2019-03-15T20:30:30.758Z,16.93
2019-03-15T20:32:58.025Z,16.60
2019-03-15T20:35:25.435Z,10.93
2019-03-15T20:37:52.697Z,8.15
2019-03-15T20:40:19.985Z,13.08
2019-03-15T20:42:47.267Z,13.58
2019-03-15T20:45:16.072Z,9.13
2019-03-15T20:47:43.360Z,17.20
2019-03-15T20:50:11.798Z,15.05
2019-03-15T20:52:39.087Z,14.45
2019-03-15T20:55:07.231Z,11.57
2019-03-15T20:57:34.585Z,16.55
2019-03-15T21:00:01.852Z,14.83
2019-03-15T21:02:29.114Z,12.18
2019-03-15T21:04:56.415Z,17.27
2019-03-15T21:07:23.673Z,10.40
2019-03-15T21:09:50.957Z,13.32
2019-03-15T21:12:18.386Z,15.78
2019-03-15T21:14:45.653Z,9.18
2019-03-15T21:17:13.339Z,8.15
2019-03-15T21:19:40.612Z,12.55
2019-03-15T21:22:07.879Z,15.72
2019-03-15T21:24:35.138Z,11.33
2019-03-15T21:27:02.662Z,13.62
2019-03-15T21:29:30.021Z,9.75
2019-03-15T21:31:57.336Z,12.15
2019-03-15T21:34:24.666Z,15.72
2019-03-15T21:36:51.954Z,11.85
2019-03-15T21:39:19.240Z,13.43
2019-03-15T21:41:46.510Z,10.58
2019-03-15T21:44:17.105Z,11.15
2019-03-15T21:46:42.766Z,11.48
2019-03-15T21:49:10.893Z,8.73
2019-03-15T21:51:38.180Z,13.98
2019-03-15T21:54:05.461Z,14.18
2019-03-15T21:56:32.757Z,14.15
2019-03-15T21:59:00.050Z,10.15
2019-03-15T22:01:27.318Z,14.83
2019-03-15T22:03:54.616Z,11.50
2019-03-15T22:06:22.125Z,12.05
2019-03-15T22:08:49.462Z,9.10
2019-03-15T22:11:21.438Z,7.45
2019-03-15T22:13:45.737Z,15.00
2019-03-15T22:16:13.035Z,10.15
2019-03-15T22:18:40.330Z,9.58
2019-03-15T22:21:07.803Z,9.60
2019-03-15T22:23:35.241Z,11.03
2019-03-15T22:26:02.542Z,14.28
2019-03-15T22:28:29.837Z,12.43
2019-03-15T22:30:57.106Z,7.40
2019-03-15T22:33:24.378Z,13.20
2019-03-15T22:35:51.657Z,6.05
2019-03-15T22:38:26.339Z,9.78
2019-03-15T22:40:47.933Z,6.45
2019-03-15T22:43:15.192Z,7.78
2019-03-15T22:45:42.452Z,10.30
2019-03-15T22:48:09.745Z,10.88
2019-03-15T22:50:37.011Z,6.78
2019-03-15T22:53:04.365Z,7.87
2019-03-15T22:55:31.629Z,8.83
2019-03-15T22:58:00.276Z,9.03
2019-03-15T23:00:37.816Z,7.87
2019-03-15T23:03:05.395Z,11.88
2019-03-15T23:05:32.765Z,5.95
2019-03-15T23:08:00.037Z,11.10
2019-03-15T23:10:27.330Z,8.20
2019-03-15T23:12:54.598Z,7.03
2019-03-15T23:15:21.856Z,6.67
2019-03-15T23:17:49.146Z,5.95
2019-03-15T23:20:16.419Z,7.75
2019-03-15T23:22:43.695Z,6.80
2019-03-15T23:25:11.056Z,8.80
2019-03-15T23:27:38.426Z,8.45
2019-03-15T23:30:07.228Z,8.33
2019-03-15T23:32:34.483Z,6.70
2019-03-15T23:35:01.758Z,6.00
2019-03-15T23:37:29.021Z,6.15
2019-03-15T23:39:56.308Z,52.53
2019-03-15T23:42:23.850Z,36.45
2019-03-15T23:44:51.153Z,10.15
2019-03-15T23:47:18.418Z,8.45
2019-03-15T23:49:45.701Z,9.93
2019-03-15T23:52:12.983Z,6.95
2019-03-15T23:54:40.316Z,7.40
2019-03-15T23:57:07.643Z,4.78
2019-03-15T23:59:34.933Z,7.58
